sensor_id;sensor_type;location;lat;lon;timestamp;pressure;altitude;pressure_sealevel;temperature;humidity
48156;BME280;35568;48.104;11.782;2024-01-10T00:02:12;96003.18;;;-3.80;42.95
48156;BME280;35568;48.104;11.782;2024-01-10T00:04:39;96004.70;;;-3.86;42.52
48156;BME280;35568;48.104;11.782;2024-01-10T00:07:06;96005.43;;;-3.43;42.61
48156;BME280;35568;48.104;11.782;2024-01-10T00:09:34;96000.96;;;-3.51;42.05
48156;BME280;35568;48.104;11.782;2024-01-10T00:12:01;95997.00;;;-3.86;42.81
48156;BME280;35568;48.104;11.782;2024-01-10T00:14:28;96000.45;;;-3.59;43.22
48156;BME280;35568;48.104;11.782;2024-01-10T00:16:55;96001.35;;;-3.75;42.93
48156;BME280;35568;48.104;11.782;2024-01-10T00:19:22;95999.85;;;-3.49;43.05
48156;BME280;35568;48.104;11.782;2024-01-10T00:21:49;96002.67;;;-3.53;43.50
48156;BME280;35568;48.104;11.782;2024-01-10T00:24:16;96000.47;;;-3.72;43.33
48156;BME280;35568;48.104;11.782;2024-01-10T00:26:44;95998.73;;;-3.51;42.92
48156;BME280;35568;48.104;11.782;2024-01-10T00:29:11;96000.47;;;-3.21;42.53
48156;BME280;35568;48.104;11.782;2024-01-10T00:31:38;96004.27;;;-4.26;42.70
48156;BME280;35568;48.104;11.782;2024-01-10T00:34:06;96002.65;;;-4.27;43.40
48156;BME280;35568;48.104;11.782;2024-01-10T00:36:33;96005.90;;;-3.17;42.75
48156;BME280;35568;48.104;11.782;2024-01-10T00:39:00;96005.97;;;-3.60;43.14
48156;BME280;35568;48.104;11.782;2024-01-10T00:41:28;96009.02;;;-3.32;43.41
48156;BME280;35568;48.104;11.782;2024-01-10T00:43:55;96008.39;;;-3.29;43.16
48156;BME280;35568;48.104;11.782;2024-01-10T00:46:22;96010.26;;;-3.23;42.43
48156;BME280;35568;48.104;11.782;2024-01-10T00:48:50;96007.42;;;-3.15;43.12
48156;BME280;35568;48.104;11.782;2024-01-10T00:51:17;96006.38;;;-3.45;42.48
48156;BME280;35568;48.104;11.782;2024-01-10T00:53:44;96001.09;;;-3.53;43.22
48156;BME280;35568;48.104;11.782;2024-01-10T00:56:11;96001.78;;;-3.43;42.60
48156;BME280;35568;48.104;11.782;2024-01-10T00:58:38;96001.32;;;-3.43;43.18
48156;BME280;35568;48.104;11.782;2024-01-10T01:01:05;96001.08;;;-3.95;43.34
48156;BME280;35568;48.104;11.782;2024-01-10T01:03:32;96003.81;;;-3.21;43.53
48156;BME280;35568;48.104;11.782;2024-01-10T01:05:59;96005.48;;;-2.78;43.57
48156;BME280;35568;48.104;11.782;2024-01-10T01:08:26;96004.23;;;-2.76;43.12
48156;BME280;35568;48.104;11.782;2024-01-10T01:10:53;96008.70;;;-3.03;43.21
48156;BME280;35568;48.104;11.782;2024-01-10T01:13:20;96013.23;;;-2.92;42.69
48156;BME280;35568;48.104;11.782;2024-01-10T01:15:48;96017.67;;;-3.16;42.67
48156;BME280;35568;48.104;11.782;2024-01-10T01:18:15;96019.12;;;-3.09;42.74
48156;BME280;35568;48.104;11.782;2024-01-10T01:20:42;96023.43;;;-2.86;42.42
48156;BME280;35568;48.104;11.782;2024-01-10T01:23:10;96022.35;;;-3.55;43.17
48156;BME280;35568;48.104;11.782;2024-01-10T01:25:37;96023.68;;;-3.49;43.37
48156;BME280;35568;48.104;11.782;2024-01-10T01:28:04;96022.48;;;-3.40;43.55
48156;BME280;35568;48.104;11.782;2024-01-10T01:30:31;96023.95;;;-3.37;43.46
48156;BME280;35568;48.104;11.782;2024-01-10T01:32:59;96027.67;;;-3.66;43.89
48156;BME280;35568;48.104;11.782;2024-01-10T01:35:26;96028.27;;;-3.05;44.12
48156;BME280;35568;48.104;11.782;2024-01-10T01:37:53;96031.83;;;-3.34;44.16
48156;BME280;35568;48.104;11.782;2024-01-10T01:40:20;96032.36;;;-3.32;44.01
48156;BME280;35568;48.104;11.782;2024-01-10T01:42:47;96031.73;;;-3.34;43.68
48156;BME280;35568;48.104;11.782;2024-01-10T01:45:14;96030.09;;;-3.59;44.02
48156;BME280;35568;48.104;11.782;2024-01-10T01:47:41;96031.37;;;-3.44;44.14
48156;BME280;35568;48.104;11.782;2024-01-10T01:50:09;96034.82;;;-3.24;43.34
48156;BME280;35568;48.104;11.782;2024-01-10T01:52:37;96036.33;;;-3.13;43.66
48156;BME280;35568;48.104;11.782;2024-01-10T01:55:06;96026.47;;;-3.19;43.93
48156;BME280;35568;48.104;11.782;2024-01-10T01:57:35;96030.85;;;-4.03;44.14
48156;BME280;35568;48.104;11.782;2024-01-10T02:00:02;96029.55;;;-4.19;45.03
48156;BME280;35568;48.104;11.782;2024-01-10T02:02:30;96033.63;;;-3.73;45.20
48156;BME280;35568;48.104;11.782;2024-01-10T02:04:58;96033.73;;;-3.81;45.28
48156;BME280;35568;48.104;11.782;2024-01-10T02:07:26;96029.65;;;-3.44;45.08
48156;BME280;35568;48.104;11.782;2024-01-10T02:09:53;96027.17;;;-3.44;44.78
48156;BME280;35568;48.104;11.782;2024-01-10T02:12:20;96025.25;;;-3.75;45.05
48156;BME280;35568;48.104;11.782;2024-01-10T02:14:47;96028.71;;;-3.72;44.72
48156;BME280;35568;48.104;11.782;2024-01-10T02:17:15;96027.39;;;-3.90;44.88
48156;BME280;35568;48.104;11.782;2024-01-10T02:19:42;96029.20;;;-3.84;44.84
48156;BME280;35568;48.104;11.782;2024-01-10T02:22:09;96028.84;;;-3.39;44.80
48156;BME280;35568;48.104;11.782;2024-01-10T02:24:37;96030.20;;;-3.18;44.95
48156;BME280;35568;48.104;11.782;2024-01-10T02:27:05;96035.10;;;-3.09;44.77
48156;BME280;35568;48.104;11.782;2024-01-10T02:29:34;96039.30;;;-3.23;44.36
48156;BME280;35568;48.104;11.782;2024-01-10T02:32:01;96039.25;;;-3.27;44.14
48156;BME280;35568;48.104;11.782;2024-01-10T02:34:30;96044.04;;;-3.40;44.01
48156;BME280;35568;48.104;11.782;2024-01-10T02:36:56;96042.49;;;-3.20;44.57
48156;BME280;35568;48.104;11.782;2024-01-10T02:39:24;96043.98;;;-2.93;44.05
48156;BME280;35568;48.104;11.782;2024-01-10T02:41:51;96039.90;;;-2.57;44.69
48156;BME280;35568;48.104;11.782;2024-01-10T02:44:18;96037.68;;;-2.86;44.21
48156;BME280;35568;48.104;11.782;2024-01-10T02:46:45;96036.73;;;-2.90;43.80
48156;BME280;35568;48.104;11.782;2024-01-10T02:49:13;96038.70;;;-3.11;43.86
48156;BME280;35568;48.104;11.782;2024-01-10T02:51:40;96040.72;;;-3.43;44.42
48156;BME280;35568;48.104;11.782;2024-01-10T02:54:07;96038.11;;;-3.23;44.14
48156;BME280;35568;48.104;11.782;2024-01-10T02:56:35;96034.17;;;-3.47;44.03
48156;BME280;35568;48.104;11.782;2024-01-10T02:59:02;96037.62;;;-3.71;44.80
48156;BME280;35568;48.104;11.782;2024-01-10T03:01:30;96034.54;;;-3.54;44.34
48156;BME280;35568;48.104;11.782;2024-01-10T03:03:57;96036.41;;;-3.73;45.10
48156;BME280;35568;48.104;11.782;2024-01-10T03:06:24;96036.43;;;-3.93;45.58
48156;BME280;35568;48.104;11.782;2024-01-10T03:08:51;96032.85;;;-3.80;45.43
48156;BME280;35568;48.104;11.782;2024-01-10T03:11:19;96026.95;;;-3.27;45.95
48156;BME280;35568;48.104;11.782;2024-01-10T03:13:47;96025.74;;;-3.89;44.78
48156;BME280;35568;48.104;11.782;2024-01-10T03:16:15;96028.18;;;-3.76;44.79
48156;BME280;35568;48.104;11.782;2024-01-10T03:18:42;96027.45;;;-3.62;45.36
48156;BME280;35568;48.104;11.782;2024-01-10T03:21:09;96025.70;;;-3.30;45.10
48156;BME280;35568;48.104;11.782;2024-01-10T03:23:36;96025.98;;;-3.67;45.00
48156;BME280;35568;48.104;11.782;2024-01-10T03:26:04;96024.58;;;-3.40;45.36
48156;BME280;35568;48.104;11.782;2024-01-10T03:28:31;96025.83;;;-3.68;45.10
48156;BME280;35568;48.104;11.782;2024-01-10T03:30:58;96024.66;;;-2.91;44.92
48156;BME280;35568;48.104;11.782;2024-01-10T03:33:25;96017.54;;;-3.51;44.44
48156;BME280;35568;48.104;11.782;2024-01-10T03:35:52;96015.25;;;-3.79;44.74
48156;BME280;35568;48.104;11.782;2024-01-10T03:38:20;96017.51;;;-4.22;44.94
48156;BME280;35568;48.104;11.782;2024-01-10T03:40:47;96014.08;;;-3.81;45.35
48156;BME280;35568;48.104;11.782;2024-01-10T03:43:14;96009.87;;;-4.18;45.31
48156;BME280;35568;48.104;11.782;2024-01-10T03:45:42;96008.71;;;-4.13;45.68
48156;BME280;35568;48.104;11.782;2024-01-10T03:48:09;96005.65;;;-4.35;46.20
48156;BME280;35568;48.104;11.782;2024-01-10T03:50:36;95999.70;;;-4.56;45.80
48156;BME280;35568;48.104;11.782;2024-01-10T03:53:04;95996.30;;;-4.82;46.63
48156;BME280;35568;48.104;11.782;2024-01-10T03:55:31;95994.75;;;-4.66;46.85
48156;BME280;35568;48.104;11.782;2024-01-10T03:57:59;95994.45;;;-4.41;46.33
48156;BME280;35568;48.104;11.782;2024-01-10T04:03:01;96002.68;;;-3.54;45.56
48156;BME280;35568;48.104;11.782;2024-01-10T04:05:28;96005.26;;;-3.75;46.73
48156;BME280;35568;48.104;11.782;2024-01-10T04:07:55;96004.12;;;-3.80;46.53
48156;BME280;35568;48.104;11.782;2024-01-10T04:10:22;96005.64;;;-3.84;46.35
48156;BME280;35568;48.104;11.782;2024-01-10T04:12:50;96002.01;;;-3.84;46.89
48156;BME280;35568;48.104;11.782;2024-01-10T04:15:17;96006.23;;;-3.77;46.63
48156;BME280;35568;48.104;11.782;2024-01-10T04:17:44;96004.31;;;-3.87;46.89
48156;BME280;35568;48.104;11.782;2024-01-10T04:20:11;96005.69;;;-4.04;46.20
48156;BME280;35568;48.104;11.782;2024-01-10T04:22:38;96005.92;;;-4.74;47.44
48156;BME280;35568;48.104;11.782;2024-01-10T04:25:06;96003.17;;;-4.03;46.88
48156;BME280;35568;48.104;11.782;2024-01-10T04:27:34;96000.22;;;-4.15;46.82
48156;BME280;35568;48.104;11.782;2024-01-10T04:30:01;95998.06;;;-4.22;47.21
48156;BME280;35568;48.104;11.782;2024-01-10T04:32:28;95995.16;;;-3.98;48.66
48156;BME280;35568;48.104;11.782;2024-01-10T04:34:56;95995.05;;;-4.11;46.83
48156;BME280;35568;48.104;11.782;2024-01-10T04:37:23;95998.32;;;-3.91;47.18
48156;BME280;35568;48.104;11.782;2024-01-10T04:39:51;95995.78;;;-4.17;47.35
48156;BME280;35568;48.104;11.782;2024-01-10T04:42:18;95994.23;;;-4.23;47.18
48156;BME280;35568;48.104;11.782;2024-01-10T04:44:45;95996.15;;;-4.13;46.72
48156;BME280;35568;48.104;11.782;2024-01-10T04:47:12;96000.51;;;-4.23;46.21
48156;BME280;35568;48.104;11.782;2024-01-10T04:49:39;96001.07;;;-4.24;47.25
48156;BME280;35568;48.104;11.782;2024-01-10T04:52:06;96001.20;;;-4.01;46.49
48156;BME280;35568;48.104;11.782;2024-01-10T04:54:34;95997.13;;;-3.62;47.40
48156;BME280;35568;48.104;11.782;2024-01-10T04:57:01;96000.39;;;-3.82;47.32
48156;BME280;35568;48.104;11.782;2024-01-10T04:59:28;96000.34;;;-3.75;46.18
48156;BME280;35568;48.104;11.782;2024-01-10T05:01:55;96005.33;;;-3.93;46.26
48156;BME280;35568;48.104;11.782;2024-01-10T05:04:22;96007.88;;;-4.46;46.66
48156;BME280;35568;48.104;11.782;2024-01-10T05:06:49;96005.13;;;-4.07;46.81
48156;BME280;35568;48.104;11.782;2024-01-10T05:09:17;96005.87;;;-4.05;46.62
48156;BME280;35568;48.104;11.782;2024-01-10T05:11:44;96007.91;;;-4.38;46.50
48156;BME280;35568;48.104;11.782;2024-01-10T05:14:12;96009.01;;;-3.84;46.75
48156;BME280;35568;48.104;11.782;2024-01-10T05:16:39;96005.25;;;-4.04;46.72
48156;BME280;35568;48.104;11.782;2024-01-10T05:19:07;96017.60;;;-4.27;47.46
48156;BME280;35568;48.104;11.782;2024-01-10T05:21:34;96019.86;;;-3.93;47.44
48156;BME280;35568;48.104;11.782;2024-01-10T05:24:01;96019.09;;;-4.03;46.48
48156;BME280;35568;48.104;11.782;2024-01-10T05:26:29;96015.21;;;-4.51;46.56
48156;BME280;35568;48.104;11.782;2024-01-10T05:28:56;96014.12;;;-4.47;47.51
48156;BME280;35568;48.104;11.782;2024-01-10T05:31:23;96019.33;;;-4.11;47.50
48156;BME280;35568;48.104;11.782;2024-01-10T05:33:50;96023.53;;;-3.90;47.37
48156;BME280;35568;48.104;11.782;2024-01-10T05:36:17;96027.11;;;-3.80;47.17
48156;BME280;35568;48.104;11.782;2024-01-10T05:38:45;96024.32;;;-4.05;46.51
48156;BME280;35568;48.104;11.782;2024-01-10T05:41:12;96022.08;;;-4.23;47.61
48156;BME280;35568;48.104;11.782;2024-01-10T05:43:40;96022.06;;;-4.15;46.97
48156;BME280;35568;48.104;11.782;2024-01-10T05:46:06;96027.58;;;-4.06;47.02
48156;BME280;35568;48.104;11.782;2024-01-10T05:48:33;96028.17;;;-3.89;47.70
48156;BME280;35568;48.104;11.782;2024-01-10T05:51:01;96027.03;;;-4.04;47.25
48156;BME280;35568;48.104;11.782;2024-01-10T05:53:28;96029.46;;;-3.81;47.86
48156;BME280;35568;48.104;11.782;2024-01-10T05:55:55;96033.14;;;-3.95;46.83
48156;BME280;35568;48.104;11.782;2024-01-10T05:58:22;96026.86;;;-4.04;46.71
48156;BME280;35568;48.104;11.782;2024-01-10T06:00:49;96024.79;;;-3.79;46.49
48156;BME280;35568;48.104;11.782;2024-01-10T06:03:16;96026.36;;;-3.49;45.98
48156;BME280;35568;48.104;11.782;2024-01-10T06:05:44;96024.83;;;-3.84;46.71
48156;BME280;35568;48.104;11.782;2024-01-10T06:08:11;96024.38;;;-3.92;46.62
48156;BME280;35568;48.104;11.782;2024-01-10T06:10:38;96029.56;;;-4.00;46.58
48156;BME280;35568;48.104;11.782;2024-01-10T06:13:06;96032.63;;;-3.73;46.17
48156;BME280;35568;48.104;11.782;2024-01-10T06:15:33;96039.33;;;-3.60;47.60
48156;BME280;35568;48.104;11.782;2024-01-10T06:18:00;96038.94;;;-3.61;45.94
48156;BME280;35568;48.104;11.782;2024-01-10T06:20:28;96039.92;;;-3.75;46.10
48156;BME280;35568;48.104;11.782;2024-01-10T06:22:55;96045.88;;;-4.25;46.13
48156;BME280;35568;48.104;11.782;2024-01-10T06:25:22;96044.42;;;-3.61;45.83
48156;BME280;35568;48.104;11.782;2024-01-10T06:27:49;96039.17;;;-3.99;45.80
48156;BME280;35568;48.104;11.782;2024-01-10T06:30:19;96035.00;;;-3.75;46.42
48156;BME280;35568;48.104;11.782;2024-01-10T06:32:46;96032.72;;;-4.09;46.56
48156;BME280;35568;48.104;11.782;2024-01-10T06:35:13;96032.09;;;-3.85;46.28
48156;BME280;35568;48.104;11.782;2024-01-10T06:37:41;96028.16;;;-4.01;46.12
48156;BME280;35568;48.104;11.782;2024-01-10T06:40:08;96035.56;;;-4.28;47.37
48156;BME280;35568;48.104;11.782;2024-01-10T06:42:35;96035.34;;;-4.53;46.40
48156;BME280;35568;48.104;11.782;2024-01-10T06:45:03;96036.16;;;-4.65;47.48
48156;BME280;35568;48.104;11.782;2024-01-10T06:47:30;96038.66;;;-4.37;46.83
48156;BME280;35568;48.104;11.782;2024-01-10T06:49:57;96038.37;;;-4.24;46.89
48156;BME280;35568;48.104;11.782;2024-01-10T06:52:25;96045.84;;;-4.43;46.45
48156;BME280;35568;48.104;11.782;2024-01-10T06:54:52;96049.37;;;-4.20;46.55
48156;BME280;35568;48.104;11.782;2024-01-10T06:57:20;96049.69;;;-4.52;46.63
48156;BME280;35568;48.104;11.782;2024-01-10T06:59:48;96046.29;;;-3.98;46.60
48156;BME280;35568;48.104;11.782;2024-01-10T07:02:15;96049.07;;;-4.08;46.43
48156;BME280;35568;48.104;11.782;2024-01-10T07:04:42;96051.70;;;-4.19;46.37
48156;BME280;35568;48.104;11.782;2024-01-10T07:07:09;96051.99;;;-3.91;46.26
48156;BME280;35568;48.104;11.782;2024-01-10T07:09:36;96050.75;;;-3.89;45.30
48156;BME280;35568;48.104;11.782;2024-01-10T07:12:04;96053.71;;;-4.01;46.21
48156;BME280;35568;48.104;11.782;2024-01-10T07:14:32;96053.13;;;-3.81;45.90
48156;BME280;35568;48.104;11.782;2024-01-10T07:16:59;96053.77;;;-3.75;45.53
48156;BME280;35568;48.104;11.782;2024-01-10T07:19:26;96056.23;;;-3.77;45.75
48156;BME280;35568;48.104;11.782;2024-01-10T07:21:54;96060.81;;;-3.70;45.65
48156;BME280;35568;48.104;11.782;2024-01-10T07:24:21;96063.51;;;-3.81;46.08
48156;BME280;35568;48.104;11.782;2024-01-10T07:26:49;96063.82;;;-3.43;45.04
48156;BME280;35568;48.104;11.782;2024-01-10T07:29:16;96065.66;;;-3.67;45.11
48156;BME280;35568;48.104;11.782;2024-01-10T07:31:43;96070.40;;;-3.61;44.97
48156;BME280;35568;48.104;11.782;2024-01-10T07:34:10;96072.68;;;-3.55;45.53
48156;BME280;35568;48.104;11.782;2024-01-10T07:36:43;96074.87;;;-4.20;46.22
48156;BME280;35568;48.104;11.782;2024-01-10T07:39:09;96078.60;;;-4.10;47.82
48156;BME280;35568;48.104;11.782;2024-01-10T07:41:37;96081.99;;;-3.81;46.69
48156;BME280;35568;48.104;11.782;2024-01-10T07:44:04;96086.55;;;-3.56;45.85
48156;BME280;35568;48.104;11.782;2024-01-10T07:46:31;96088.05;;;-3.38;45.61
48156;BME280;35568;48.104;11.782;2024-01-10T07:48:58;96086.05;;;-2.73;49.55
48156;BME280;35568;48.104;11.782;2024-01-10T07:51:25;96092.67;;;-3.11;46.48
48156;BME280;35568;48.104;11.782;2024-01-10T07:53:53;96094.32;;;-2.82;44.43
48156;BME280;35568;48.104;11.782;2024-01-10T07:56:20;96096.53;;;-2.74;50.97
48156;BME280;35568;48.104;11.782;2024-01-10T07:58:47;96097.82;;;-2.56;45.25
48156;BME280;35568;48.104;11.782;2024-01-10T08:01:15;96102.41;;;-3.31;45.76
48156;BME280;35568;48.104;11.782;2024-01-10T08:03:43;96109.38;;;-3.19;45.14
48156;BME280;35568;48.104;11.782;2024-01-10T08:06:10;96111.48;;;-2.98;44.83
48156;BME280;35568;48.104;11.782;2024-01-10T08:08:37;96107.55;;;-3.32;44.85
48156;BME280;35568;48.104;11.782;2024-01-10T08:11:04;96110.70;;;-3.53;45.03
48156;BME280;35568;48.104;11.782;2024-01-10T08:13:31;96108.00;;;-3.81;46.25
48156;BME280;35568;48.104;11.782;2024-01-10T08:15:59;96109.11;;;-4.05;47.09
48156;BME280;35568;48.104;11.782;2024-01-10T08:18:26;96112.71;;;-3.62;46.43
48156;BME280;35568;48.104;11.782;2024-01-10T08:20:53;96111.22;;;-3.27;45.90
48156;BME280;35568;48.104;11.782;2024-01-10T08:23:20;96109.86;;;-3.47;45.79
48156;BME280;35568;48.104;11.782;2024-01-10T08:25:48;96106.90;;;-3.48;47.04
48156;BME280;35568;48.104;11.782;2024-01-10T08:28:16;96102.41;;;-3.31;45.39
48156;BME280;35568;48.104;11.782;2024-01-10T08:30:43;96102.33;;;-3.33;45.57
48156;BME280;35568;48.104;11.782;2024-01-10T08:33:11;96106.66;;;-3.45;46.76
48156;BME280;35568;48.104;11.782;2024-01-10T08:35:38;96107.14;;;-3.45;45.97
48156;BME280;35568;48.104;11.782;2024-01-10T08:38:05;96108.51;;;-3.44;46.38
48156;BME280;35568;48.104;11.782;2024-01-10T08:40:32;96108.70;;;-3.78;45.65
48156;BME280;35568;48.104;11.782;2024-01-10T08:42:59;96104.21;;;-3.91;47.26
48156;BME280;35568;48.104;11.782;2024-01-10T08:45:26;96105.45;;;-3.78;46.84
48156;BME280;35568;48.104;11.782;2024-01-10T08:47:53;96106.03;;;-3.76;47.41
48156;BME280;35568;48.104;11.782;2024-01-10T08:50:21;96108.32;;;-4.04;47.58
48156;BME280;35568;48.104;11.782;2024-01-10T08:52:48;96111.11;;;-3.39;47.00
48156;BME280;35568;48.104;11.782;2024-01-10T08:55:15;96110.26;;;-3.53;47.40
48156;BME280;35568;48.104;11.782;2024-01-10T08:57:42;96113.33;;;-3.63;46.71
48156;BME280;35568;48.104;11.782;2024-01-10T09:00:10;96114.24;;;-3.41;47.57
48156;BME280;35568;48.104;11.782;2024-01-10T09:02:37;96114.66;;;-2.96;46.50
48156;BME280;35568;48.104;11.782;2024-01-10T09:05:06;96117.34;;;-3.34;46.56
48156;BME280;35568;48.104;11.782;2024-01-10T09:07:33;96121.41;;;-3.30;46.35
48156;BME280;35568;48.104;11.782;2024-01-10T09:10:00;96125.53;;;-2.91;46.63
48156;BME280;35568;48.104;11.782;2024-01-10T09:12:28;96129.91;;;-2.62;45.73
48156;BME280;35568;48.104;11.782;2024-01-10T09:14:55;96126.72;;;-3.10;46.36
48156;BME280;35568;48.104;11.782;2024-01-10T09:17:23;96130.96;;;-3.03;47.54
48156;BME280;35568;48.104;11.782;2024-01-10T09:19:50;96133.48;;;-3.31;47.32
48156;BME280;35568;48.104;11.782;2024-01-10T09:22:17;96139.24;;;-2.69;47.35
48156;BME280;35568;48.104;11.782;2024-01-10T09:24:45;96137.73;;;-2.79;47.02
48156;BME280;35568;48.104;11.782;2024-01-10T09:27:12;96136.69;;;-2.82;46.84
48156;BME280;35568;48.104;11.782;2024-01-10T09:29:39;96139.12;;;-2.82;46.72
48156;BME280;35568;48.104;11.782;2024-01-10T09:32:06;96140.50;;;-3.13;47.18
48156;BME280;35568;48.104;11.782;2024-01-10T09:34:33;96139.50;;;-2.36;46.04
48156;BME280;35568;48.104;11.782;2024-01-10T09:37:00;96135.08;;;-2.66;46.96
48156;BME280;35568;48.104;11.782;2024-01-10T09:39:27;96134.62;;;-2.72;47.73
48156;BME280;35568;48.104;11.782;2024-01-10T09:41:54;96134.65;;;-2.49;47.39
48156;BME280;35568;48.104;11.782;2024-01-10T09:44:21;96129.22;;;-3.15;47.01
48156;BME280;35568;48.104;11.782;2024-01-10T09:46:52;96133.49;;;-3.26;47.49
48156;BME280;35568;48.104;11.782;2024-01-10T09:49:19;96132.71;;;-3.16;47.85
48156;BME280;35568;48.104;11.782;2024-01-10T09:51:48;96138.36;;;-3.35;47.83
48156;BME280;35568;48.104;11.782;2024-01-10T09:54:16;96134.87;;;-2.80;47.58
48156;BME280;35568;48.104;11.782;2024-01-10T09:56:43;96131.98;;;-3.37;47.95
48156;BME280;35568;48.104;11.782;2024-01-10T09:59:11;96134.10;;;-3.85;48.23
48156;BME280;35568;48.104;11.782;2024-01-10T10:01:39;96133.85;;;-3.19;48.18
48156;BME280;35568;48.104;11.782;2024-01-10T10:04:07;96131.46;;;-3.90;49.48
48156;BME280;35568;48.104;11.782;2024-01-10T10:06:37;96128.14;;;-3.13;48.80
48156;BME280;35568;48.104;11.782;2024-01-10T10:09:06;96126.31;;;-2.56;47.63
48156;BME280;35568;48.104;11.782;2024-01-10T10:11:34;96126.02;;;-2.20;47.14
48156;BME280;35568;48.104;11.782;2024-01-10T10:14:15;96127.17;;;-2.17;46.46
48156;BME280;35568;48.104;11.782;2024-01-10T10:16:43;96125.61;;;-2.27;47.26
48156;BME280;35568;48.104;11.782;2024-01-10T10:19:11;96124.29;;;-1.86;46.00
48156;BME280;35568;48.104;11.782;2024-01-10T10:21:38;96123.03;;;-1.40;45.73
48156;BME280;35568;48.104;11.782;2024-01-10T10:24:06;96128.51;;;-1.47;45.84
48156;BME280;35568;48.104;11.782;2024-01-10T10:26:34;96130.52;;;-1.90;46.21
48156;BME280;35568;48.104;11.782;2024-01-10T10:29:01;96127.58;;;-1.67;46.14
48156;BME280;35568;48.104;11.782;2024-01-10T10:31:28;96131.24;;;-2.46;46.04
48156;BME280;35568;48.104;11.782;2024-01-10T10:33:56;96128.33;;;-2.21;46.79
48156;BME280;35568;48.104;11.782;2024-01-10T10:36:23;96128.40;;;-1.80;47.25
48156;BME280;35568;48.104;11.782;2024-01-10T10:38:50;96131.42;;;-2.54;46.93
48156;BME280;35568;48.104;11.782;2024-01-10T10:41:19;96131.12;;;-2.81;46.74
48156;BME280;35568;48.104;11.782;2024-01-10T10:43:46;96128.69;;;-2.10;46.87
48156;BME280;35568;48.104;11.782;2024-01-10T10:46:13;96131.37;;;-1.74;46.03
48156;BME280;35568;48.104;11.782;2024-01-10T10:48:40;96138.44;;;-1.87;45.38
48156;BME280;35568;48.104;11.782;2024-01-10T10:51:09;96135.94;;;-1.69;46.19
48156;BME280;35568;48.104;11.782;2024-01-10T10:53:38;96132.10;;;-1.29;45.92
48156;BME280;35568;48.104;11.782;2024-01-10T10:56:06;96134.65;;;-0.97;44.94
48156;BME280;35568;48.104;11.782;2024-01-10T10:58:37;96132.04;;;-0.78;44.48
48156;BME280;35568;48.104;11.782;2024-01-10T11:01:09;96132.71;;;-0.39;44.61
48156;BME280;35568;48.104;11.782;2024-01-10T11:03:39;96136.83;;;-0.73;44.82
48156;BME280;35568;48.104;11.782;2024-01-10T11:06:06;96132.72;;;-1.41;45.10
48156;BME280;35568;48.104;11.782;2024-01-10T11:08:36;96130.33;;;-0.90;45.07
48156;BME280;35568;48.104;11.782;2024-01-10T11:11:13;96126.44;;;-1.32;44.78
48156;BME280;35568;48.104;11.782;2024-01-10T11:14:00;96124.88;;;-0.54;44.60
48156;BME280;35568;48.104;11.782;2024-01-10T11:17:44;96121.44;;;-0.20;44.03
48156;BME280;35568;48.104;11.782;2024-01-10T11:20:32;96115.57;;;-0.38;43.92
48156;BME280;35568;48.104;11.782;2024-01-10T11:23:28;96119.15;;;-0.63;44.43
48156;BME280;35568;48.104;11.782;2024-01-10T11:26:02;96123.90;;;-0.32;44.65
48156;BME280;35568;48.104;11.782;2024-01-10T11:28:30;96126.21;;;-0.27;44.09
48156;BME280;35568;48.104;11.782;2024-01-10T11:30:58;96122.79;;;0.07;43.55
48156;BME280;35568;48.104;11.782;2024-01-10T11:33:32;96121.99;;;-0.18;42.61
48156;BME280;35568;48.104;11.782;2024-01-10T11:36:09;96124.44;;;-0.03;43.57
48156;BME280;35568;48.104;11.782;2024-01-10T11:38:43;96124.13;;;-0.14;43.76
48156;BME280;35568;48.104;11.782;2024-01-10T11:41:11;96125.55;;;0.29;42.94
48156;BME280;35568;48.104;11.782;2024-01-10T11:43:39;96124.40;;;0.30;42.90
48156;BME280;35568;48.104;11.782;2024-01-10T11:46:07;96129.60;;;0.37;43.12
48156;BME280;35568;48.104;11.782;2024-01-10T11:48:37;96133.38;;;-0.14;43.25
48156;BME280;35568;48.104;11.782;2024-01-10T11:51:04;96134.03;;;-0.37;43.81
48156;BME280;35568;48.104;11.782;2024-01-10T11:53:42;96132.00;;;-0.03;44.38
48156;BME280;35568;48.104;11.782;2024-01-10T11:56:11;96133.44;;;0.19;43.54
48156;BME280;35568;48.104;11.782;2024-01-10T11:59:01;96134.87;;;0.14;44.36
48156;BME280;35568;48.104;11.782;2024-01-10T12:01:29;96134.17;;;-0.50;44.94
48156;BME280;35568;48.104;11.782;2024-01-10T12:03:58;96130.29;;;-0.22;43.49
48156;BME280;35568;48.104;11.782;2024-01-10T12:06:25;96130.84;;;-0.16;43.43
48156;BME280;35568;48.104;11.782;2024-01-10T12:08:53;96131.66;;;-0.28;43.88
48156;BME280;35568;48.104;11.782;2024-01-10T12:11:20;96128.48;;;0.29;44.25
48156;BME280;35568;48.104;11.782;2024-01-10T12:13:47;96126.08;;;-0.40;43.96
48156;BME280;35568;48.104;11.782;2024-01-10T12:16:15;96127.66;;;-0.34;44.49
48156;BME280;35568;48.104;11.782;2024-01-10T12:18:43;96125.55;;;-0.65;45.78
48156;BME280;35568;48.104;11.782;2024-01-10T12:21:10;96122.90;;;-0.14;44.22
48156;BME280;35568;48.104;11.782;2024-01-10T12:23:38;96125.51;;;-0.09;44.19
48156;BME280;35568;48.104;11.782;2024-01-10T12:26:07;96121.82;;;-0.43;43.96
48156;BME280;35568;48.104;11.782;2024-01-10T12:28:35;96122.01;;;-0.23;43.59
48156;BME280;35568;48.104;11.782;2024-01-10T12:31:03;96117.42;;;-0.21;44.07
48156;BME280;35568;48.104;11.782;2024-01-10T12:33:31;96112.75;;;-0.26;43.68
48156;BME280;35568;48.104;11.782;2024-01-10T12:36:07;96110.29;;;-0.14;45.07
48156;BME280;35568;48.104;11.782;2024-01-10T12:38:36;96116.95;;;-0.26;43.88
48156;BME280;35568;48.104;11.782;2024-01-10T12:41:04;96113.77;;;0.02;43.38
48156;BME280;35568;48.104;11.782;2024-01-10T12:43:31;96109.02;;;0.11;43.31
48156;BME280;35568;48.104;11.782;2024-01-10T12:46:06;96106.58;;;0.15;44.68
48156;BME280;35568;48.104;11.782;2024-01-10T12:48:34;96108.47;;;0.29;44.10
48156;BME280;35568;48.104;11.782;2024-01-10T12:51:03;96108.38;;;-0.34;44.33
48156;BME280;35568;48.104;11.782;2024-01-10T12:53:31;96110.62;;;-0.20;44.40
48156;BME280;35568;48.104;11.782;2024-01-10T12:55:58;96114.03;;;0.19;44.34
48156;BME280;35568;48.104;11.782;2024-01-10T12:58:26;96110.38;;;0.19;43.66